createdAt,value
2023-04-14T00:01:50.565Z,9.77
2023-04-14T00:04:20.402Z,9.31
2023-04-14T00:07:02.685Z,9.30
2023-04-14T00:09:32.661Z,9.38
2023-04-14T00:12:05.618Z,9.42
2023-04-14T00:14:36.852Z,9.27
2023-04-14T00:17:08.321Z,9.63
2023-04-14T00:19:36.268Z,9.22
2023-04-14T00:22:10.148Z,8.91
2023-04-14T00:24:43.625Z,8.95
2023-04-14T00:27:16.398Z,9.21
2023-04-14T00:29:49.664Z,9.12
2023-04-14T00:32:18.278Z,9.21
2023-04-14T00:34:49.208Z,8.92
2023-04-14T00:37:19.255Z,9.23
2023-04-14T00:39:51.643Z,8.54
2023-04-14T00:42:22.129Z,8.44
2023-04-14T00:44:51.570Z,8.74
2023-04-14T00:47:29.374Z,8.29
2023-04-14T00:50:21.118Z,8.91
2023-04-14T00:52:51.681Z,8.71
2023-04-14T00:55:22.253Z,6.87
2023-04-14T00:58:00.072Z,8.97
2023-04-14T01:00:38.113Z,8.90
2023-04-14T01:03:07.664Z,9.00
2023-04-14T01:05:37.106Z,8.83
2023-04-14T01:08:11.538Z,9.00
2023-04-14T01:10:47.279Z,9.26
2023-04-14T01:13:26.929Z,9.07
2023-04-14T01:15:59.837Z,8.97
2023-04-14T01:18:38.126Z,8.99
2023-04-14T01:21:11.793Z,8.98
2023-04-14T01:23:43.613Z,8.96
2023-04-14T01:26:22.733Z,9.17
2023-04-14T01:29:10.545Z,9.29
2023-04-14T01:31:43.273Z,9.20
2023-04-14T01:34:17.568Z,9.16
2023-04-14T01:36:55.769Z,9.25
2023-04-14T01:39:30.883Z,8.15
2023-04-14T01:41:59.965Z,7.87
2023-04-14T01:44:29.218Z,7.97
2023-04-14T01:47:02.907Z,8.25
2023-04-14T01:49:36.264Z,8.59
2023-04-14T01:52:07.237Z,9.00
2023-04-14T01:54:36.675Z,9.14
2023-04-14T01:57:06.274Z,8.60
2023-04-14T01:59:38.619Z,8.88
2023-04-14T02:02:09.918Z,8.65
2023-04-14T02:04:40.228Z,8.82
2023-04-14T02:07:10.173Z,8.64
2023-04-14T02:09:41.947Z,8.77
2023-04-14T02:12:18.356Z,8.80
2023-04-14T02:14:48.413Z,8.93
2023-04-14T02:17:21.180Z,7.92
2023-04-14T02:19:56.313Z,9.02
2023-04-14T02:22:26.050Z,8.79
2023-04-14T02:25:00.416Z,8.99
2023-04-14T02:27:33.178Z,9.14
2023-04-14T02:30:04.780Z,8.94
2023-04-14T02:32:43.311Z,9.09
2023-04-14T02:38:08.447Z,9.19
2023-04-14T02:40:43.215Z,9.33
2023-04-14T02:43:14.455Z,9.39
2023-04-14T02:45:43.862Z,8.99
2023-04-14T02:48:19.091Z,9.35
2023-04-14T02:50:51.226Z,9.38
2023-04-14T02:53:25.399Z,9.49
2023-04-14T02:56:02.483Z,9.10
2023-04-14T02:58:31.544Z,9.28
2023-04-14T03:01:02.101Z,9.83
2023-04-14T03:03:35.426Z,10.22
2023-04-14T03:06:04.110Z,10.14
2023-04-14T03:08:35.467Z,10.14
2023-04-14T03:11:24.621Z,10.36
2023-04-14T03:13:54.397Z,10.12
2023-04-14T03:16:26.840Z,9.14
2023-04-14T03:18:57.697Z,8.99
2023-04-14T03:21:30.189Z,8.42
2023-04-14T03:24:01.244Z,8.94
2023-04-14T03:26:32.630Z,8.84
2023-04-14T03:29:03.873Z,8.68
2023-04-14T03:31:35.201Z,8.75
2023-04-14T03:34:06.698Z,8.23
2023-04-14T03:36:36.629Z,8.93
2023-04-14T03:39:09.601Z,8.95
2023-04-14T03:41:40.723Z,8.26
2023-04-14T03:44:15.838Z,7.71
2023-04-14T03:46:44.210Z,7.90
2023-04-14T03:49:18.294Z,7.67
2023-04-14T03:51:52.745Z,7.47
2023-04-14T03:54:27.929Z,7.42
2023-04-14T03:56:57.440Z,7.67
2023-04-14T03:59:29.120Z,6.73
2023-04-14T04:02:03.522Z,7.37
2023-04-14T04:04:37.243Z,7.13
2023-04-14T04:07:10.495Z,7.61
2023-04-14T04:09:40.532Z,7.69
2023-04-14T04:12:11.826Z,7.29
2023-04-14T04:14:41.763Z,7.48
2023-04-14T04:17:10.277Z,8.21
2023-04-14T04:19:44.281Z,8.06
2023-04-14T04:22:16.421Z,8.13
2023-04-14T04:24:45.586Z,7.51
2023-04-14T04:27:26.543Z,7.55
2023-04-14T04:29:56.112Z,7.70
2023-04-14T04:32:26.603Z,8.17
2023-04-14T04:34:56.753Z,5.21
2023-04-14T04:37:32.343Z,7.28
2023-04-14T04:40:03.161Z,7.24
2023-04-14T04:42:32.910Z,7.27
2023-04-14T04:45:01.845Z,7.00
2023-04-14T04:47:31.371Z,7.62
2023-04-14T04:50:07.574Z,7.57
2023-04-14T04:52:37.152Z,7.78
2023-04-14T04:55:07.595Z,7.72
2023-04-14T04:57:35.936Z,8.03
2023-04-14T05:00:08.959Z,8.08
2023-04-14T05:02:39.184Z,7.96
2023-04-14T05:05:10.060Z,8.40
2023-04-14T05:07:41.361Z,8.46
2023-04-14T05:10:10.050Z,8.72
2023-04-14T05:12:43.310Z,8.84
2023-04-14T05:15:12.524Z,8.43
2023-04-14T05:17:40.909Z,8.52
2023-04-14T05:20:14.990Z,8.52
2023-04-14T05:22:44.814Z,8.84
2023-04-14T05:25:13.562Z,8.36
2023-04-14T05:27:46.367Z,8.78
2023-04-14T05:30:14.788Z,5.90
2023-04-14T05:32:44.038Z,8.93
2023-04-14T05:35:14.967Z,8.94
2023-04-14T05:37:43.278Z,8.08
2023-04-14T05:40:12.442Z,8.61
2023-04-14T05:42:41.870Z,8.59
2023-04-14T05:45:12.966Z,8.90
2023-04-14T05:47:41.025Z,9.06
2023-04-14T05:50:10.291Z,8.97
2023-04-14T05:52:42.519Z,9.21
2023-04-14T05:55:11.104Z,8.93
2023-04-14T05:57:41.474Z,8.89
2023-04-14T06:00:10.720Z,8.97
2023-04-14T06:02:39.165Z,8.51
2023-04-14T06:05:08.903Z,9.20
2023-04-14T06:07:37.094Z,9.29
2023-04-14T06:10:07.415Z,9.29
2023-04-14T06:12:35.406Z,8.97
2023-04-14T06:15:09.368Z,8.96
2023-04-14T06:17:37.788Z,9.26
2023-04-14T06:20:07.122Z,9.51
2023-04-14T06:22:35.118Z,9.02
2023-04-14T06:25:03.050Z,7.88
2023-04-14T06:27:36.196Z,9.30
2023-04-14T06:30:07.091Z,8.92
2023-04-14T06:32:46.843Z,9.05
2023-04-14T06:35:22.400Z,9.40
2023-04-14T06:38:00.068Z,9.80
2023-04-14T06:40:28.456Z,9.89
2023-04-14T06:43:02.178Z,9.90
2023-04-14T06:45:48.810Z,9.78
2023-04-14T06:48:18.737Z,10.22
2023-04-14T06:50:59.116Z,9.20
2023-04-14T06:53:28.804Z,9.76
2023-04-14T06:56:01.051Z,9.47
2023-04-14T06:58:33.102Z,9.19
2023-04-14T07:01:04.619Z,9.18
2023-04-14T07:03:34.859Z,10.22
2023-04-14T07:06:11.846Z,10.70
2023-04-14T07:08:41.845Z,9.69
2023-04-14T07:11:17.394Z,10.52
2023-04-14T07:13:52.609Z,9.71
2023-04-14T07:16:22.013Z,9.44
2023-04-14T07:18:58.080Z,9.28
2023-04-14T07:21:26.316Z,10.48
2023-04-14T07:23:54.679Z,10.26
2023-04-14T07:26:24.133Z,10.63
2023-04-14T07:28:59.114Z,11.09
2023-04-14T07:31:28.908Z,11.45
2023-04-14T07:33:57.455Z,10.28
2023-04-14T07:36:26.602Z,10.32
2023-04-14T07:38:55.417Z,9.95
2023-04-14T07:41:23.608Z,9.76
2023-04-14T07:43:55.627Z,9.89
2023-04-14T07:46:23.969Z,10.45
2023-04-14T07:48:51.980Z,10.99
2023-04-14T07:51:21.809Z,10.29
2023-04-14T07:53:57.356Z,10.79
2023-04-14T07:56:26.486Z,11.02
2023-04-14T07:58:56.543Z,10.62
2023-04-14T08:01:24.615Z,10.21
2023-04-14T08:03:53.106Z,10.65
2023-04-14T08:06:22.394Z,10.88
2023-04-14T08:08:54.254Z,10.84
2023-04-14T08:11:22.518Z,10.97
2023-04-14T08:13:50.358Z,11.23
2023-04-14T08:16:21.671Z,10.91
2023-04-14T08:18:50.711Z,10.36
2023-04-14T08:21:21.126Z,11.52
2023-04-14T08:23:49.960Z,11.05
2023-04-14T08:26:18.811Z,11.31
2023-04-14T08:28:48.197Z,11.40
2023-04-14T08:31:16.795Z,11.06
2023-04-14T08:33:46.883Z,10.76
2023-04-14T08:36:15.711Z,11.17
2023-04-14T08:38:47.531Z,11.17
2023-04-14T08:41:16.537Z,10.79
2023-04-14T08:43:45.074Z,10.97
2023-04-14T08:46:16.773Z,11.02
2023-04-14T08:48:48.918Z,11.71
2023-04-14T08:51:24.222Z,11.45
2023-04-14T08:53:56.155Z,11.71
2023-04-14T08:56:27.624Z,11.57
2023-04-14T08:58:56.757Z,11.33
2023-04-14T09:01:25.991Z,11.73
2023-04-14T09:03:57.874Z,11.47
2023-04-14T09:06:28.151Z,12.02
2023-04-14T09:08:57.443Z,11.46
2023-04-14T09:11:33.955Z,11.65
2023-04-14T09:14:15.390Z,12.24
2023-04-14T09:16:43.567Z,13.02
2023-04-14T09:19:14.826Z,13.63
2023-04-14T09:21:53.300Z,13.19
2023-04-14T09:24:31.744Z,12.16
2023-04-14T09:27:03.734Z,11.66
2023-04-14T09:29:36.394Z,12.99
2023-04-14T09:32:06.043Z,13.06
2023-04-14T09:34:36.923Z,14.19
2023-04-14T09:37:07.937Z,13.21
2023-04-14T09:39:51.460Z,14.37
2023-04-14T09:42:36.076Z,15.33
2023-04-14T09:45:07.063Z,15.50
2023-04-14T09:47:36.295Z,15.02
2023-04-14T09:50:10.663Z,14.45
2023-04-14T09:52:44.915Z,12.36
2023-04-14T09:55:17.206Z,13.92
2023-04-14T09:57:47.858Z,13.65
2023-04-14T10:00:25.229Z,13.38
2023-04-14T10:03:01.094Z,12.80
2023-04-14T10:05:36.829Z,13.11
2023-04-14T10:08:13.040Z,13.89
2023-04-14T10:10:41.816Z,14.19
2023-04-14T10:13:16.036Z,14.12
2023-04-14T10:15:44.335Z,13.91
2023-04-14T10:18:12.628Z,14.76
2023-04-14T10:20:44.317Z,14.50
2023-04-14T10:23:12.367Z,13.98
2023-04-14T10:25:40.996Z,14.91
2023-04-14T10:28:11.316Z,13.89
2023-04-14T10:30:44.989Z,14.25
2023-04-14T10:33:15.498Z,13.26
2023-04-14T10:35:47.122Z,14.25
2023-04-14T10:38:15.724Z,13.66
2023-04-14T10:40:47.346Z,13.03
2023-04-14T10:43:16.825Z,13.99
2023-04-14T10:45:55.441Z,13.76
2023-04-14T10:48:25.814Z,14.25
2023-04-14T10:51:06.643Z,13.19
2023-04-14T10:53:45.863Z,14.43
2023-04-14T10:56:16.151Z,14.16
2023-04-14T10:58:56.225Z,14.43
2023-04-14T11:01:32.854Z,14.56
2023-04-14T11:04:17.855Z,15.10
2023-04-14T11:07:12.827Z,13.73
2023-04-14T11:09:41.485Z,15.36
2023-04-14T11:12:24.745Z,14.86
2023-04-14T11:14:57.125Z,15.27
2023-04-14T11:17:25.574Z,15.81
2023-04-14T11:19:59.832Z,15.92
2023-04-14T11:22:46.105Z,13.11
2023-04-14T11:25:15.238Z,14.11
2023-04-14T11:27:44.542Z,15.59
2023-04-14T11:30:16.589Z,16.49
2023-04-14T11:32:49.531Z,15.03
2023-04-14T11:35:17.597Z,15.82
2023-04-14T11:37:49.703Z,15.88
2023-04-14T11:40:24.601Z,15.66
2023-04-14T11:42:56.652Z,15.39
2023-04-14T11:45:31.356Z,16.53
2023-04-14T11:50:46.790Z,15.62
2023-04-14T11:53:19.886Z,15.36
2023-04-14T11:55:49.745Z,15.13
2023-04-14T11:58:23.114Z,14.36
2023-04-14T12:00:55.106Z,16.86
2023-04-14T12:03:29.099Z,16.17
2023-04-14T12:06:01.559Z,15.60
2023-04-14T12:08:33.273Z,15.81
2023-04-14T12:11:15.388Z,15.74
2023-04-14T12:13:45.630Z,14.69
2023-04-14T12:16:14.235Z,14.44
2023-04-14T12:18:46.209Z,13.28
2023-04-14T12:21:18.699Z,13.99
2023-04-14T12:23:54.034Z,14.60
2023-04-14T12:26:22.114Z,15.86
2023-04-14T12:28:59.139Z,15.10
2023-04-14T12:31:32.992Z,14.19
2023-04-14T12:34:03.787Z,14.22
2023-04-14T12:36:49.077Z,14.71
2023-04-14T12:39:24.872Z,15.32
2023-04-14T12:42:00.948Z,15.00
2023-04-14T12:44:28.844Z,14.48
2023-04-14T12:46:56.940Z,14.31
2023-04-14T12:49:32.580Z,14.49
2023-04-14T12:52:00.974Z,14.60
2023-04-14T12:54:48.314Z,15.00
2023-04-14T12:57:16.144Z,14.82
2023-04-14T12:59:44.000Z,14.41
2023-04-14T13:02:14.267Z,14.58
2023-04-14T13:04:43.924Z,14.24
2023-04-14T13:07:16.830Z,14.49
2023-04-14T13:09:51.823Z,14.06
2023-04-14T13:12:22.622Z,13.70
2023-04-14T13:14:57.212Z,15.86
2023-04-14T13:17:27.804Z,15.24
2023-04-14T13:19:57.593Z,15.11
2023-04-14T13:22:26.010Z,14.96
2023-04-14T13:24:58.261Z,15.60
2023-04-14T13:27:26.959Z,15.93
2023-04-14T13:29:55.620Z,15.12
2023-04-14T13:32:31.141Z,15.20
2023-04-14T13:34:58.994Z,15.20
2023-04-14T13:37:32.666Z,15.17
2023-04-14T13:40:01.967Z,15.46
2023-04-14T13:42:32.944Z,15.15
2023-04-14T13:45:04.110Z,15.37
2023-04-14T13:47:36.594Z,15.36
2023-04-14T13:50:07.485Z,15.76
2023-04-14T13:52:38.052Z,15.98
2023-04-14T13:55:19.766Z,15.51
2023-04-14T13:57:52.963Z,15.13
2023-04-14T14:00:23.207Z,15.73
2023-04-14T14:02:52.871Z,15.60
2023-04-14T14:05:20.704Z,15.84
2023-04-14T14:07:52.256Z,14.92
2023-04-14T14:10:22.261Z,15.67
2023-04-14T14:12:54.011Z,15.52
2023-04-14T14:15:21.756Z,15.23
2023-04-14T14:17:53.077Z,14.77
2023-04-14T14:20:21.173Z,15.85
2023-04-14T14:22:52.228Z,15.33
2023-04-14T14:25:23.463Z,15.70
2023-04-14T14:27:51.960Z,15.45
2023-04-14T14:30:26.350Z,15.57
2023-04-14T14:32:56.352Z,15.69
2023-04-14T14:35:27.242Z,15.31
2023-04-14T14:38:00.736Z,15.46
2023-04-14T14:40:31.556Z,15.07
2023-04-14T14:43:07.360Z,15.21
2023-04-14T14:45:39.759Z,14.97
2023-04-14T14:48:13.517Z,14.75
2023-04-14T14:50:43.799Z,14.72
2023-04-14T14:53:11.706Z,14.94
2023-04-14T14:55:43.444Z,15.17
2023-04-14T14:58:12.051Z,15.53
2023-04-14T15:00:46.774Z,16.45
2023-04-14T15:03:15.145Z,17.12
2023-04-14T15:05:43.479Z,16.32
2023-04-14T15:08:11.758Z,16.63
2023-04-14T15:10:42.014Z,16.97
2023-04-14T15:13:09.870Z,16.98
2023-04-14T15:15:37.749Z,16.41
2023-04-14T15:18:08.719Z,16.28
2023-04-14T15:20:36.826Z,16.42
2023-04-14T15:23:04.619Z,15.80
2023-04-14T15:25:32.507Z,15.78
2023-04-14T15:28:01.785Z,15.57
2023-04-14T15:30:29.719Z,16.59
2023-04-14T15:33:00.470Z,17.01
2023-04-14T15:35:30.944Z,16.86
2023-04-14T15:38:03.812Z,16.07
2023-04-14T15:40:32.033Z,17.34
2023-04-14T15:43:05.433Z,15.92
2023-04-14T15:45:36.110Z,16.40
2023-04-14T15:48:10.419Z,16.51
2023-04-14T15:50:44.382Z,16.42
2023-04-14T15:53:28.314Z,14.94
2023-04-14T15:56:01.610Z,15.79
2023-04-14T15:58:32.044Z,16.63
2023-04-14T16:01:05.900Z,16.78
2023-04-14T16:03:36.541Z,15.90
2023-04-14T16:06:11.118Z,16.51
2023-04-14T16:08:39.382Z,16.83
2023-04-14T16:11:07.962Z,16.00
2023-04-14T16:13:37.733Z,15.93
2023-04-14T16:16:06.845Z,15.70
2023-04-14T16:18:37.099Z,14.74
2023-04-14T16:21:05.857Z,14.93
2023-04-14T16:23:42.104Z,15.73
2023-04-14T16:26:10.832Z,15.03
2023-04-14T16:28:41.368Z,14.90
2023-04-14T16:31:09.202Z,15.55
2023-04-14T16:33:41.962Z,16.10
2023-04-14T16:36:09.923Z,15.08
2023-04-14T16:38:39.675Z,15.06
2023-04-14T16:41:07.508Z,15.15
2023-04-14T16:43:44.713Z,15.58
2023-04-14T16:46:12.457Z,15.19
2023-04-14T16:48:45.522Z,15.21
2023-04-14T16:51:17.714Z,15.16
2023-04-14T16:53:48.748Z,14.66
2023-04-14T16:56:17.576Z,14.47
2023-04-14T16:58:47.690Z,14.69
2023-04-14T17:01:20.616Z,15.24
2023-04-14T17:03:52.028Z,14.98
2023-04-14T17:06:22.821Z,15.36
2023-04-14T17:08:51.018Z,15.29
2023-04-14T17:11:23.003Z,14.86
2023-04-14T17:13:53.079Z,14.70
2023-04-14T17:16:24.621Z,14.62
2023-04-14T17:18:53.659Z,14.91
2023-04-14T17:21:22.194Z,14.69
2023-04-14T17:23:55.722Z,14.48
2023-04-14T17:26:27.173Z,14.58
2023-04-14T17:28:57.915Z,14.31
2023-04-14T17:31:26.513Z,14.81
2023-04-14T17:33:57.600Z,14.76
2023-04-14T17:36:28.698Z,14.58
2023-04-14T17:39:05.062Z,14.26
2023-04-14T17:41:33.276Z,14.21
2023-04-14T17:44:12.239Z,14.16
2023-04-14T17:46:46.536Z,13.96
2023-04-14T17:49:20.429Z,14.49
2023-04-14T17:51:48.626Z,14.41
2023-04-14T17:54:19.622Z,14.48
2023-04-14T17:56:49.364Z,13.98
2023-04-14T17:59:23.137Z,14.23
2023-04-14T18:01:56.401Z,14.12
2023-04-14T18:04:28.408Z,13.64
2023-04-14T18:07:00.101Z,13.88
2023-04-14T18:09:31.488Z,13.88
2023-04-14T18:12:05.233Z,13.84
2023-04-14T18:14:38.542Z,14.37
2023-04-14T18:17:19.141Z,14.35
2023-04-14T18:19:47.659Z,14.32
2023-04-14T18:22:17.731Z,14.02
2023-04-14T18:24:48.693Z,14.32
2023-04-14T18:29:56.753Z,14.11
2023-04-14T18:32:30.015Z,14.39
2023-04-14T18:35:03.210Z,14.26
2023-04-14T18:37:31.471Z,14.04
2023-04-14T18:40:00.089Z,14.47
2023-04-14T18:42:34.061Z,14.46
2023-04-14T18:45:04.273Z,14.34
2023-04-14T18:47:33.233Z,14.46
2023-04-14T18:50:07.110Z,14.40
2023-04-14T18:52:42.129Z,14.42
2023-04-14T18:55:13.679Z,14.41
2023-04-14T18:57:47.058Z,14.43
2023-04-14T19:00:17.200Z,14.37
2023-04-14T19:02:58.918Z,14.05
2023-04-14T19:05:33.015Z,13.80
2023-04-14T19:08:04.493Z,12.79
2023-04-14T19:10:39.936Z,13.19
2023-04-14T19:13:14.016Z,13.74
2023-04-14T19:15:44.471Z,13.87
2023-04-14T19:18:13.007Z,13.94
2023-04-14T19:20:47.811Z,13.65
2023-04-14T19:23:17.282Z,13.91
2023-04-14T19:25:45.712Z,13.90
2023-04-14T19:28:19.711Z,13.52
2023-04-14T19:31:00.469Z,13.78
2023-04-14T19:33:30.545Z,13.75
2023-04-14T19:35:58.916Z,13.72
2023-04-14T19:38:27.816Z,13.23
2023-04-14T19:41:01.400Z,13.13
2023-04-14T19:43:29.607Z,13.04
2023-04-14T19:46:05.048Z,12.60
2023-04-14T19:48:35.051Z,12.52
2023-04-14T19:51:12.742Z,12.57
2023-04-14T19:53:43.609Z,12.16
2023-04-14T19:56:15.009Z,12.37
2023-04-14T19:58:43.415Z,12.03
2023-04-14T20:01:19.015Z,12.03
2023-04-14T20:04:09.307Z,12.40
2023-04-14T20:06:39.917Z,12.51
2023-04-14T20:09:12.747Z,12.63
2023-04-14T20:11:40.811Z,12.68
2023-04-14T20:14:09.133Z,12.50
2023-04-14T20:16:41.751Z,12.58
2023-04-14T20:19:14.968Z,12.74
2023-04-14T20:21:46.900Z,12.61
2023-04-14T20:24:17.917Z,12.79
2023-04-14T20:26:48.817Z,12.76
2023-04-14T20:29:17.600Z,12.62
2023-04-14T20:31:49.164Z,12.68
2023-04-14T20:34:18.115Z,12.47
2023-04-14T20:36:47.724Z,12.64
2023-04-14T20:39:15.930Z,6.41
2023-04-14T20:42:03.653Z,12.35
2023-04-14T20:44:34.090Z,12.47
2023-04-14T20:47:06.892Z,11.83
2023-04-14T20:49:35.195Z,12.48
2023-04-14T20:52:08.652Z,12.09
2023-04-14T20:54:37.598Z,12.44
2023-04-14T20:57:06.935Z,12.45
2023-04-14T20:59:35.836Z,12.38
2023-04-14T21:02:08.482Z,12.50
2023-04-14T21:04:39.649Z,12.31
2023-04-14T21:07:11.085Z,12.44
2023-04-14T21:09:42.032Z,11.81
2023-04-14T21:12:14.685Z,11.69
2023-04-14T21:15:36.895Z,11.80
2023-04-14T21:17:37.642Z,11.73
2023-04-14T21:20:07.157Z,12.09
2023-04-14T21:22:45.480Z,9.97
2023-04-14T21:25:13.789Z,11.89
2023-04-14T21:27:41.744Z,11.68
2023-04-14T21:30:10.909Z,11.31
2023-04-14T21:32:45.075Z,11.06
2023-04-14T21:35:18.520Z,11.18
2023-04-14T21:37:46.964Z,10.87
2023-04-14T21:40:14.952Z,11.12
2023-04-14T21:42:49.276Z,11.37
2023-04-14T21:45:19.003Z,10.67
2023-04-14T21:47:51.926Z,10.39
2023-04-14T21:50:20.160Z,10.35
2023-04-14T21:52:51.028Z,10.35
2023-04-14T21:55:24.009Z,10.49
2023-04-14T21:57:54.018Z,10.40
2023-04-14T22:00:26.488Z,9.95
2023-04-14T22:02:56.754Z,10.01
2023-04-14T22:05:25.268Z,10.17
2023-04-14T22:07:53.901Z,10.24
2023-04-14T22:10:32.068Z,9.66
2023-04-14T22:13:04.794Z,9.85
2023-04-14T22:15:43.033Z,9.48
2023-04-14T22:18:17.408Z,10.32
2023-04-14T22:20:46.259Z,10.16
2023-04-14T22:23:15.334Z,10.43
2023-04-14T22:25:51.050Z,10.39
2023-04-14T22:28:21.216Z,10.30
2023-04-14T22:30:53.181Z,10.41
2023-04-14T22:33:22.929Z,10.12
2023-04-14T22:35:51.603Z,9.99
2023-04-14T22:38:24.129Z,9.91
2023-04-14T22:40:55.348Z,9.97
2023-04-14T22:43:24.440Z,9.59
2023-04-14T22:45:56.109Z,9.70
2023-04-14T22:48:39.429Z,9.57
2023-04-14T22:51:17.329Z,9.77
2023-04-14T22:53:45.424Z,9.55
2023-04-14T22:56:14.627Z,9.54
2023-04-14T22:58:43.569Z,9.34
2023-04-14T23:01:22.444Z,9.52
2023-04-14T23:03:54.863Z,9.31
2023-04-14T23:06:24.769Z,8.68
2023-04-14T23:08:53.092Z,9.26
2023-04-14T23:11:23.599Z,9.21
2023-04-14T23:13:52.402Z,9.08
2023-04-14T23:16:23.241Z,8.95
2023-04-14T23:18:53.838Z,8.96
2023-04-14T23:21:22.767Z,8.85
2023-04-14T23:23:54.323Z,9.13
2023-04-14T23:26:23.206Z,9.13
2023-04-14T23:28:53.213Z,8.98
2023-04-14T23:31:22.560Z,9.20
2023-04-14T23:33:52.959Z,9.09
2023-04-14T23:36:25.689Z,8.85
2023-04-14T23:38:56.315Z,8.76
2023-04-14T23:41:24.489Z,8.59
2023-04-14T23:43:52.526Z,8.24
2023-04-14T23:46:26.675Z,8.58
2023-04-14T23:48:54.953Z,8.39
2023-04-14T23:51:25.206Z,8.53
2023-04-14T23:53:59.426Z,8.16
2023-04-14T23:56:27.489Z,7.69
2023-04-14T23:58:58.690Z,8.10
